sensor_id;sensor_type;location;lat;lon;timestamp;P1;durP1;ratioP1;P2;durP2;ratioP2
67721;SDS011;58309;45.292;11.820;2023-03-11T00:00:59;5.88;;;2.60;;
67721;SDS011;58309;45.292;11.820;2023-03-11T00:03:25;4.55;;;2.60;;
67721;SDS011;58309;45.292;11.820;2023-03-11T00:05:53;3.05;;;2.60;;
67721;SDS011;58309;45.292;11.820;2023-03-11T00:08:21;7.30;;;2.88;;
67721;SDS011;58309;45.292;11.820;2023-03-11T00:10:51;5.35;;;2.70;;
67721;SDS011;58309;45.292;11.820;2023-03-11T00:13:19;4.05;;;2.67;;
67721;SDS011;58309;45.292;11.820;2023-03-11T00:15:46;6.60;;;2.42;;
67721;SDS011;58309;45.292;11.820;2023-03-11T00:18:13;7.95;;;2.60;;
67721;SDS011;58309;45.292;11.820;2023-03-11T00:20:40;5.70;;;2.67;;
67721;SDS011;58309;45.292;11.820;2023-03-11T00:23:08;6.63;;;2.92;;
67721;SDS011;58309;45.292;11.820;2023-03-11T00:25:36;3.72;;;2.60;;
67721;SDS011;58309;45.292;11.820;2023-03-11T00:28:02;5.18;;;2.78;;
67721;SDS011;58309;45.292;11.820;2023-03-11T00:30:29;5.65;;;2.63;;
67721;SDS011;58309;45.292;11.820;2023-03-11T00:32:55;3.03;;;2.58;;
67721;SDS011;58309;45.292;11.820;2023-03-11T00:35:23;6.22;;;2.90;;
67721;SDS011;58309;45.292;11.820;2023-03-11T00:37:52;4.43;;;3.00;;
67721;SDS011;58309;45.292;11.820;2023-03-11T00:40:20;7.80;;;2.92;;
67721;SDS011;58309;45.292;11.820;2023-03-11T00:42:46;7.60;;;3.03;;
67721;SDS011;58309;45.292;11.820;2023-03-11T00:45:12;8.88;;;2.70;;
67721;SDS011;58309;45.292;11.820;2023-03-11T00:47:40;4.05;;;2.90;;
67721;SDS011;58309;45.292;11.820;2023-03-11T00:50:06;9.23;;;2.92;;
67721;SDS011;58309;45.292;11.820;2023-03-11T00:52:32;7.88;;;2.92;;
67721;SDS011;58309;45.292;11.820;2023-03-11T00:54:58;10.30;;;3.10;;
67721;SDS011;58309;45.292;11.820;2023-03-11T00:57:23;7.18;;;3.55;;
67721;SDS011;58309;45.292;11.820;2023-03-11T00:59:51;7.05;;;2.80;;
67721;SDS011;58309;45.292;11.820;2023-03-11T01:02:17;6.85;;;2.97;;
67721;SDS011;58309;45.292;11.820;2023-03-11T01:04:43;4.90;;;2.90;;
67721;SDS011;58309;45.292;11.820;2023-03-11T01:07:08;7.10;;;2.60;;
67721;SDS011;58309;45.292;11.820;2023-03-11T01:09:34;3.78;;;2.88;;
67721;SDS011;58309;45.292;11.820;2023-03-11T01:11:59;5.28;;;2.75;;
67721;SDS011;58309;45.292;11.820;2023-03-11T01:14:25;4.50;;;2.47;;
67721;SDS011;58309;45.292;11.820;2023-03-11T01:16:50;5.68;;;2.55;;
67721;SDS011;58309;45.292;11.820;2023-03-11T01:19:17;5.93;;;2.55;;
67721;SDS011;58309;45.292;11.820;2023-03-11T01:21:43;8.80;;;2.35;;
67721;SDS011;58309;45.292;11.820;2023-03-11T01:24:09;3.05;;;2.33;;
67721;SDS011;58309;45.292;11.820;2023-03-11T01:26:34;6.07;;;2.22;;
67721;SDS011;58309;45.292;11.820;2023-03-11T01:29:00;3.25;;;2.05;;
67721;SDS011;58309;45.292;11.820;2023-03-11T01:31:25;5.30;;;2.20;;
67721;SDS011;58309;45.292;11.820;2023-03-11T01:33:51;4.90;;;2.30;;
67721;SDS011;58309;45.292;11.820;2023-03-11T01:36:16;3.50;;;1.95;;
67721;SDS011;58309;45.292;11.820;2023-03-11T01:38:42;7.13;;;2.30;;
67721;SDS011;58309;45.292;11.820;2023-03-11T01:41:07;4.78;;;2.10;;
67721;SDS011;58309;45.292;11.820;2023-03-11T01:48:38;3.15;;;2.13;;
67721;SDS011;58309;45.292;11.820;2023-03-11T01:51:06;3.00;;;1.80;;
67721;SDS011;58309;45.292;11.820;2023-03-11T01:53:32;2.47;;;1.88;;
67721;SDS011;58309;45.292;11.820;2023-03-11T01:55:58;3.25;;;1.80;;
67721;SDS011;58309;45.292;11.820;2023-03-11T01:58:27;3.53;;;1.73;;
67721;SDS011;58309;45.292;11.820;2023-03-11T02:00:58;4.57;;;1.77;;
67721;SDS011;58309;45.292;11.820;2023-03-11T02:03:33;3.92;;;1.88;;
67721;SDS011;58309;45.292;11.820;2023-03-11T02:06:02;6.10;;;1.80;;
67721;SDS011;58309;45.292;11.820;2023-03-11T02:08:30;3.63;;;1.70;;
67721;SDS011;58309;45.292;11.820;2023-03-11T02:10:58;1.52;;;1.42;;
67721;SDS011;58309;45.292;11.820;2023-03-11T02:13:26;1.88;;;1.70;;
67721;SDS011;58309;45.292;11.820;2023-03-11T02:15:52;2.83;;;2.15;;
67721;SDS011;58309;45.292;11.820;2023-03-11T02:18:18;5.38;;;1.77;;
67721;SDS011;58309;45.292;11.820;2023-03-11T02:20:51;2.30;;;1.60;;
67721;SDS011;58309;45.292;11.820;2023-03-11T02:23:29;5.25;;;1.67;;
67721;SDS011;58309;45.292;11.820;2023-03-11T02:26:17;2.50;;;1.60;;
67721;SDS011;58309;45.292;11.820;2023-03-11T02:28:47;4.43;;;1.85;;
67721;SDS011;58309;45.292;11.820;2023-03-11T02:31:14;1.90;;;1.77;;
67721;SDS011;58309;45.292;11.820;2023-03-11T02:33:40;4.50;;;1.92;;
67721;SDS011;58309;45.292;11.820;2023-03-11T02:36:11;1.60;;;1.50;;
67721;SDS011;58309;45.292;11.820;2023-03-11T02:39:03;3.15;;;1.75;;
67721;SDS011;58309;45.292;11.820;2023-03-11T02:41:30;6.85;;;1.92;;
67721;SDS011;58309;45.292;11.820;2023-03-11T02:43:58;2.55;;;1.70;;
67721;SDS011;58309;45.292;11.820;2023-03-11T02:46:24;2.70;;;1.70;;
67721;SDS011;58309;45.292;11.820;2023-03-11T02:48:50;3.28;;;1.90;;
67721;SDS011;58309;45.292;11.820;2023-03-11T02:51:17;3.33;;;1.73;;
67721;SDS011;58309;45.292;11.820;2023-03-11T02:53:53;2.25;;;1.70;;
67721;SDS011;58309;45.292;11.820;2023-03-11T02:56:22;1.90;;;1.80;;
67721;SDS011;58309;45.292;11.820;2023-03-11T02:58:47;2.30;;;1.58;;
67721;SDS011;58309;45.292;11.820;2023-03-11T03:01:13;2.00;;;1.90;;
67721;SDS011;58309;45.292;11.820;2023-03-11T03:03:39;3.78;;;1.70;;
67721;SDS011;58309;45.292;11.820;2023-03-11T03:06:04;2.75;;;1.73;;
67721;SDS011;58309;45.292;11.820;2023-03-11T03:08:30;2.60;;;1.50;;
67721;SDS011;58309;45.292;11.820;2023-03-11T03:10:56;3.25;;;2.00;;
67721;SDS011;58309;45.292;11.820;2023-03-11T03:13:23;3.70;;;1.90;;
67721;SDS011;58309;45.292;11.820;2023-03-11T03:15:50;2.13;;;1.88;;
67721;SDS011;58309;45.292;11.820;2023-03-11T03:18:15;6.03;;;2.10;;
67721;SDS011;58309;45.292;11.820;2023-03-11T03:20:41;3.67;;;2.78;;
67721;SDS011;58309;45.292;11.820;2023-03-11T03:23:06;6.88;;;4.82;;
67721;SDS011;58309;45.292;11.820;2023-03-11T03:25:32;20.52;;;10.15;;
67721;SDS011;58309;45.292;11.820;2023-03-11T03:27:58;24.70;;;12.77;;
67721;SDS011;58309;45.292;11.820;2023-03-11T03:30:23;24.95;;;13.73;;
67721;SDS011;58309;45.292;11.820;2023-03-11T03:32:49;35.28;;;15.10;;
67721;SDS011;58309;45.292;11.820;2023-03-11T03:35:14;26.77;;;16.33;;
67721;SDS011;58309;45.292;11.820;2023-03-11T03:37:40;28.00;;;17.67;;
67721;SDS011;58309;45.292;11.820;2023-03-11T03:40:06;33.00;;;17.25;;
67721;SDS011;58309;45.292;11.820;2023-03-11T03:42:33;36.13;;;17.55;;
67721;SDS011;58309;45.292;11.820;2023-03-11T03:45:00;28.65;;;16.52;;
67721;SDS011;58309;45.292;11.820;2023-03-11T03:47:26;28.60;;;17.20;;
67721;SDS011;58309;45.292;11.820;2023-03-11T03:49:51;32.03;;;17.65;;
67721;SDS011;58309;45.292;11.820;2023-03-11T03:52:17;34.72;;;18.77;;
67721;SDS011;58309;45.292;11.820;2023-03-11T03:54:42;33.83;;;17.92;;
67721;SDS011;58309;45.292;11.820;2023-03-11T03:57:08;32.70;;;17.75;;
67721;SDS011;58309;45.292;11.820;2023-03-11T03:59:34;32.30;;;18.70;;
67721;SDS011;58309;45.292;11.820;2023-03-11T04:02:00;34.70;;;19.38;;
67721;SDS011;58309;45.292;11.820;2023-03-11T04:04:25;31.38;;;18.40;;
67721;SDS011;58309;45.292;11.820;2023-03-11T04:06:51;33.08;;;19.02;;
67721;SDS011;58309;45.292;11.820;2023-03-11T04:09:17;30.63;;;19.10;;
67721;SDS011;58309;45.292;11.820;2023-03-11T04:11:43;46.00;;;23.10;;
67721;SDS011;58309;45.292;11.820;2023-03-11T04:14:08;38.15;;;23.30;;
67721;SDS011;58309;45.292;11.820;2023-03-11T04:16:34;44.25;;;24.15;;
67721;SDS011;58309;45.292;11.820;2023-03-11T04:18:59;42.15;;;22.63;;
67721;SDS011;58309;45.292;11.820;2023-03-11T04:21:25;41.50;;;22.13;;
67721;SDS011;58309;45.292;11.820;2023-03-11T04:23:51;40.25;;;23.65;;
67721;SDS011;58309;45.292;11.820;2023-03-11T04:26:16;42.10;;;24.67;;
67721;SDS011;58309;45.292;11.820;2023-03-11T04:28:42;45.17;;;24.40;;
67721;SDS011;58309;45.292;11.820;2023-03-11T04:31:07;47.40;;;25.33;;
67721;SDS011;58309;45.292;11.820;2023-03-11T04:33:33;44.85;;;25.25;;
67721;SDS011;58309;45.292;11.820;2023-03-11T04:35:59;43.00;;;25.35;;
67721;SDS011;58309;45.292;11.820;2023-03-11T04:38:29;46.30;;;24.50;;
67721;SDS011;58309;45.292;11.820;2023-03-11T04:40:58;48.95;;;25.63;;
67721;SDS011;58309;45.292;11.820;2023-03-11T04:43:27;45.28;;;25.00;;
67721;SDS011;58309;45.292;11.820;2023-03-11T04:45:53;44.13;;;25.02;;
67721;SDS011;58309;45.292;11.820;2023-03-11T04:48:19;49.75;;;24.63;;
67721;SDS011;58309;45.292;11.820;2023-03-11T04:50:44;42.42;;;24.98;;
67721;SDS011;58309;45.292;11.820;2023-03-11T04:53:10;47.75;;;25.17;;
67721;SDS011;58309;45.292;11.820;2023-03-11T04:55:36;42.05;;;24.60;;
67721;SDS011;58309;45.292;11.820;2023-03-11T04:58:02;39.17;;;24.60;;
67721;SDS011;58309;45.292;11.820;2023-03-11T05:00:28;40.70;;;22.85;;
67721;SDS011;58309;45.292;11.820;2023-03-11T05:02:53;40.53;;;24.30;;
67721;SDS011;58309;45.292;11.820;2023-03-11T05:05:19;38.35;;;23.65;;
67721;SDS011;58309;45.292;11.820;2023-03-11T05:07:44;35.72;;;22.23;;
67721;SDS011;58309;45.292;11.820;2023-03-11T05:10:10;37.10;;;22.05;;
67721;SDS011;58309;45.292;11.820;2023-03-11T05:12:36;32.38;;;20.70;;
67721;SDS011;58309;45.292;11.820;2023-03-11T05:15:01;38.88;;;20.45;;
67721;SDS011;58309;45.292;11.820;2023-03-11T05:17:27;33.70;;;19.13;;
67721;SDS011;58309;45.292;11.820;2023-03-11T05:19:53;31.50;;;19.25;;
67721;SDS011;58309;45.292;11.820;2023-03-11T05:22:19;33.83;;;19.50;;
67721;SDS011;58309;45.292;11.820;2023-03-11T05:24:45;28.52;;;18.67;;
67721;SDS011;58309;45.292;11.820;2023-03-11T05:27:11;27.90;;;17.80;;
67721;SDS011;58309;45.292;11.820;2023-03-11T05:29:37;31.00;;;19.45;;
67721;SDS011;58309;45.292;11.820;2023-03-11T05:32:03;30.20;;;18.13;;
67721;SDS011;58309;45.292;11.820;2023-03-11T05:34:29;29.67;;;18.77;;
67721;SDS011;58309;45.292;11.820;2023-03-11T05:36:55;32.17;;;18.02;;
67721;SDS011;58309;45.292;11.820;2023-03-11T05:39:21;26.48;;;17.80;;
67721;SDS011;58309;45.292;11.820;2023-03-11T05:41:46;29.77;;;17.10;;
67721;SDS011;58309;45.292;11.820;2023-03-11T05:44:11;31.92;;;17.40;;
67721;SDS011;58309;45.292;11.820;2023-03-11T05:46:37;26.80;;;17.15;;
67721;SDS011;58309;45.292;11.820;2023-03-11T05:49:02;32.85;;;16.88;;
67721;SDS011;58309;45.292;11.820;2023-03-11T05:51:28;26.08;;;15.95;;
67721;SDS011;58309;45.292;11.820;2023-03-11T05:53:54;27.13;;;15.90;;
67721;SDS011;58309;45.292;11.820;2023-03-11T05:56:20;25.05;;;15.80;;
67721;SDS011;58309;45.292;11.820;2023-03-11T05:58:47;25.60;;;16.00;;
67721;SDS011;58309;45.292;11.820;2023-03-11T06:01:14;27.77;;;16.17;;
67721;SDS011;58309;45.292;11.820;2023-03-11T06:03:41;24.30;;;14.93;;
67721;SDS011;58309;45.292;11.820;2023-03-11T06:06:08;27.33;;;15.50;;
67721;SDS011;58309;45.292;11.820;2023-03-11T06:08:35;27.55;;;15.23;;
67721;SDS011;58309;45.292;11.820;2023-03-11T06:11:08;26.92;;;14.98;;
67721;SDS011;58309;45.292;11.820;2023-03-11T06:13:35;21.13;;;12.68;;
67721;SDS011;58309;45.292;11.820;2023-03-11T06:16:01;16.05;;;10.75;;
67721;SDS011;58309;45.292;11.820;2023-03-11T06:18:27;17.80;;;11.23;;
67721;SDS011;58309;45.292;11.820;2023-03-11T06:20:52;18.30;;;10.35;;
67721;SDS011;58309;45.292;11.820;2023-03-11T06:23:19;13.48;;;10.05;;
67721;SDS011;58309;45.292;11.820;2023-03-11T06:25:53;19.60;;;11.07;;
67721;SDS011;58309;45.292;11.820;2023-03-11T06:28:20;20.13;;;11.40;;
67721;SDS011;58309;45.292;11.820;2023-03-11T06:30:45;17.85;;;10.80;;
67721;SDS011;58309;45.292;11.820;2023-03-11T06:33:11;20.45;;;11.25;;
67721;SDS011;58309;45.292;11.820;2023-03-11T06:35:38;25.42;;;10.02;;
67721;SDS011;58309;45.292;11.820;2023-03-11T06:38:03;18.45;;;9.45;;
67721;SDS011;58309;45.292;11.820;2023-03-11T06:40:29;16.90;;;9.88;;
67721;SDS011;58309;45.292;11.820;2023-03-11T06:42:55;16.70;;;9.25;;
67721;SDS011;58309;45.292;11.820;2023-03-11T06:45:20;14.45;;;8.85;;
67721;SDS011;58309;45.292;11.820;2023-03-11T06:47:45;11.98;;;8.30;;
67721;SDS011;58309;45.292;11.820;2023-03-11T06:50:11;10.68;;;7.75;;
67721;SDS011;58309;45.292;11.820;2023-03-11T06:52:37;11.45;;;7.78;;
67721;SDS011;58309;45.292;11.820;2023-03-11T06:55:02;12.35;;;7.57;;
67721;SDS011;58309;45.292;11.820;2023-03-11T06:57:28;12.05;;;7.00;;
67721;SDS011;58309;45.292;11.820;2023-03-11T06:59:55;11.45;;;6.93;;
67721;SDS011;58309;45.292;11.820;2023-03-11T07:02:21;11.65;;;7.60;;
67721;SDS011;58309;45.292;11.820;2023-03-11T07:04:49;11.73;;;8.18;;
67721;SDS011;58309;45.292;11.820;2023-03-11T07:07:15;10.63;;;6.90;;
67721;SDS011;58309;45.292;11.820;2023-03-11T07:09:41;14.10;;;7.40;;
67721;SDS011;58309;45.292;11.820;2023-03-11T07:12:07;13.95;;;7.30;;
67721;SDS011;58309;45.292;11.820;2023-03-11T07:14:33;9.52;;;7.03;;
67721;SDS011;58309;45.292;11.820;2023-03-11T07:16:58;15.95;;;7.40;;
67721;SDS011;58309;45.292;11.820;2023-03-11T07:19:24;17.02;;;7.10;;
67721;SDS011;58309;45.292;11.820;2023-03-11T07:21:50;14.65;;;7.10;;
67721;SDS011;58309;45.292;11.820;2023-03-11T07:24:15;10.40;;;6.68;;
67721;SDS011;58309;45.292;11.820;2023-03-11T07:26:41;8.95;;;6.43;;
67721;SDS011;58309;45.292;11.820;2023-03-11T07:29:06;12.40;;;7.18;;
67721;SDS011;58309;45.292;11.820;2023-03-11T07:31:33;18.02;;;7.53;;
67721;SDS011;58309;45.292;11.820;2023-03-11T07:34:00;13.02;;;7.60;;
67721;SDS011;58309;45.292;11.820;2023-03-11T07:36:27;18.55;;;9.18;;
67721;SDS011;58309;45.292;11.820;2023-03-11T07:38:54;16.48;;;9.32;;
67721;SDS011;58309;45.292;11.820;2023-03-11T07:41:26;13.68;;;8.88;;
67721;SDS011;58309;45.292;11.820;2023-03-11T07:43:53;16.30;;;9.32;;
67721;SDS011;58309;45.292;11.820;2023-03-11T07:46:21;14.95;;;9.38;;
67721;SDS011;58309;45.292;11.820;2023-03-11T07:48:48;20.67;;;11.70;;
67721;SDS011;58309;45.292;11.820;2023-03-11T07:51:16;16.77;;;9.70;;
67721;SDS011;58309;45.292;11.820;2023-03-11T07:53:46;24.70;;;12.10;;
67721;SDS011;58309;45.292;11.820;2023-03-11T07:56:13;23.65;;;13.02;;
67721;SDS011;58309;45.292;11.820;2023-03-11T07:58:40;28.67;;;15.13;;
67721;SDS011;58309;45.292;11.820;2023-03-11T08:01:13;26.58;;;15.15;;
67721;SDS011;58309;45.292;11.820;2023-03-11T08:03:41;34.97;;;15.98;;
67721;SDS011;58309;45.292;11.820;2023-03-11T08:06:12;31.48;;;15.18;;
67721;SDS011;58309;45.292;11.820;2023-03-11T08:08:39;29.15;;;14.57;;
67721;SDS011;58309;45.292;11.820;2023-03-11T08:11:04;26.00;;;14.15;;
67721;SDS011;58309;45.292;11.820;2023-03-11T08:13:31;30.33;;;15.07;;
67721;SDS011;58309;45.292;11.820;2023-03-11T08:15:57;25.60;;;12.65;;
67721;SDS011;58309;45.292;11.820;2023-03-11T08:18:22;23.13;;;12.85;;
67721;SDS011;58309;45.292;11.820;2023-03-11T08:20:48;27.17;;;11.02;;
67721;SDS011;58309;45.292;11.820;2023-03-11T08:23:14;26.88;;;11.15;;
67721;SDS011;58309;45.292;11.820;2023-03-11T08:25:39;23.10;;;11.85;;
67721;SDS011;58309;45.292;11.820;2023-03-11T08:28:06;19.55;;;11.80;;
67721;SDS011;58309;45.292;11.820;2023-03-11T08:30:33;20.58;;;12.35;;
67721;SDS011;58309;45.292;11.820;2023-03-11T08:32:59;25.17;;;12.65;;
67721;SDS011;58309;45.292;11.820;2023-03-11T08:35:24;23.10;;;12.25;;
67721;SDS011;58309;45.292;11.820;2023-03-11T08:37:51;25.25;;;12.98;;
67721;SDS011;58309;45.292;11.820;2023-03-11T08:40:16;25.52;;;11.93;;
67721;SDS011;58309;45.292;11.820;2023-03-11T08:42:42;24.20;;;11.82;;
67721;SDS011;58309;45.292;11.820;2023-03-11T08:45:08;22.25;;;11.73;;
67721;SDS011;58309;45.292;11.820;2023-03-11T08:47:34;23.27;;;12.30;;
67721;SDS011;58309;45.292;11.820;2023-03-11T08:50:02;21.25;;;12.70;;
67721;SDS011;58309;45.292;11.820;2023-03-11T08:52:32;21.90;;;13.18;;
67721;SDS011;58309;45.292;11.820;2023-03-11T08:54:58;31.95;;;14.00;;
67721;SDS011;58309;45.292;11.820;2023-03-11T08:57:23;23.88;;;12.93;;
67721;SDS011;58309;45.292;11.820;2023-03-11T08:59:49;31.90;;;14.40;;
67721;SDS011;58309;45.292;11.820;2023-03-11T09:02:14;25.20;;;13.93;;
67721;SDS011;58309;45.292;11.820;2023-03-11T09:04:40;25.25;;;13.05;;
67721;SDS011;58309;45.292;11.820;2023-03-11T09:07:05;27.48;;;12.77;;
67721;SDS011;58309;45.292;11.820;2023-03-11T09:09:31;22.15;;;11.90;;
67721;SDS011;58309;45.292;11.820;2023-03-11T09:11:56;28.10;;;11.80;;
67721;SDS011;58309;45.292;11.820;2023-03-11T09:14:22;26.23;;;10.10;;
67721;SDS011;58309;45.292;11.820;2023-03-11T09:16:47;26.27;;;9.68;;
67721;SDS011;58309;45.292;11.820;2023-03-11T09:19:13;25.08;;;10.32;;
67721;SDS011;58309;45.292;11.820;2023-03-11T09:21:38;24.83;;;10.63;;
67721;SDS011;58309;45.292;11.820;2023-03-11T09:24:04;22.67;;;10.65;;
67721;SDS011;58309;45.292;11.820;2023-03-11T09:26:30;21.60;;;9.60;;
67721;SDS011;58309;45.292;11.820;2023-03-11T09:28:56;19.88;;;9.60;;
67721;SDS011;58309;45.292;11.820;2023-03-11T09:31:22;26.48;;;11.63;;
67721;SDS011;58309;45.292;11.820;2023-03-11T09:33:47;26.75;;;10.95;;
67721;SDS011;58309;45.292;11.820;2023-03-11T09:36:17;24.98;;;11.60;;
67721;SDS011;58309;45.292;11.820;2023-03-11T09:38:45;23.42;;;10.15;;
67721;SDS011;58309;45.292;11.820;2023-03-11T09:44:10;22.48;;;9.55;;
67721;SDS011;58309;45.292;11.820;2023-03-11T09:54:40;21.98;;;9.30;;
67721;SDS011;58309;45.292;11.820;2023-03-11T09:57:11;21.40;;;10.43;;
67721;SDS011;58309;45.292;11.820;2023-03-11T09:59:40;22.70;;;9.40;;
67721;SDS011;58309;45.292;11.820;2023-03-11T10:02:14;23.95;;;10.25;;
67721;SDS011;58309;45.292;11.820;2023-03-11T10:04:49;21.85;;;10.38;;
67721;SDS011;58309;45.292;11.820;2023-03-11T10:07:35;27.38;;;11.38;;
67721;SDS011;58309;45.292;11.820;2023-03-11T10:10:04;18.05;;;9.68;;
67721;SDS011;58309;45.292;11.820;2023-03-11T10:12:50;22.83;;;8.88;;
67721;SDS011;58309;45.292;11.820;2023-03-11T10:32:38;19.55;;;8.48;;
67721;SDS011;58309;45.292;11.820;2023-03-11T10:35:18;26.17;;;9.27;;
67721;SDS011;58309;45.292;11.820;2023-03-11T10:37:53;18.92;;;8.63;;
67721;SDS011;58309;45.292;11.820;2023-03-11T10:40:30;24.00;;;9.30;;
67721;SDS011;58309;45.292;11.820;2023-03-11T10:42:58;20.00;;;9.07;;
67721;SDS011;58309;45.292;11.820;2023-03-11T10:45:28;20.98;;;9.27;;
67721;SDS011;58309;45.292;11.820;2023-03-11T10:48:03;17.90;;;8.80;;
67721;SDS011;58309;45.292;11.820;2023-03-11T10:50:34;21.98;;;9.00;;
67721;SDS011;58309;45.292;11.820;2023-03-11T10:55:49;16.87;;;8.47;;
67721;SDS011;58309;45.292;11.820;2023-03-11T10:58:20;24.75;;;9.80;;
67721;SDS011;58309;45.292;11.820;2023-03-11T11:03:29;20.48;;;9.38;;
67721;SDS011;58309;45.292;11.820;2023-03-11T11:05:57;20.38;;;9.55;;
67721;SDS011;58309;45.292;11.820;2023-03-11T11:08:30;22.35;;;9.90;;
67721;SDS011;58309;45.292;11.820;2023-03-11T11:10:57;19.63;;;10.27;;
67721;SDS011;58309;45.292;11.820;2023-03-11T11:13:25;19.30;;;9.05;;
67721;SDS011;58309;45.292;11.820;2023-03-11T11:16:01;22.35;;;9.68;;
67721;SDS011;58309;45.292;11.820;2023-03-11T11:18:41;21.60;;;9.60;;
67721;SDS011;58309;45.292;11.820;2023-03-11T11:21:16;22.95;;;9.70;;
67721;SDS011;58309;45.292;11.820;2023-03-11T11:24:02;23.60;;;10.82;;
67721;SDS011;58309;45.292;11.820;2023-03-11T11:26:40;21.63;;;11.00;;
67721;SDS011;58309;45.292;11.820;2023-03-11T11:31:35;28.58;;;12.98;;
67721;SDS011;58309;45.292;11.820;2023-03-11T11:34:02;22.80;;;11.50;;
67721;SDS011;58309;45.292;11.820;2023-03-11T11:36:32;23.35;;;11.43;;
67721;SDS011;58309;45.292;11.820;2023-03-11T11:39:00;25.58;;;13.35;;
67721;SDS011;58309;45.292;11.820;2023-03-11T11:41:30;21.27;;;11.93;;
67721;SDS011;58309;45.292;11.820;2023-03-11T11:44:00;22.55;;;11.80;;
67721;SDS011;58309;45.292;11.820;2023-03-11T11:49:15;23.48;;;11.48;;
67721;SDS011;58309;45.292;11.820;2023-03-11T11:51:49;20.50;;;11.45;;
67721;SDS011;58309;45.292;11.820;2023-03-11T11:56:56;23.75;;;12.35;;
67721;SDS011;58309;45.292;11.820;2023-03-11T11:59:24;23.23;;;11.63;;
67721;SDS011;58309;45.292;11.820;2023-03-11T12:01:56;22.30;;;11.88;;
67721;SDS011;58309;45.292;11.820;2023-03-11T12:18:41;19.23;;;10.88;;
67721;SDS011;58309;45.292;11.820;2023-03-11T12:24:31;19.70;;;11.60;;
67721;SDS011;58309;45.292;11.820;2023-03-11T12:27:53;18.40;;;10.73;;
67721;SDS011;58309;45.292;11.820;2023-03-11T12:30:10;20.77;;;11.23;;
67721;SDS011;58309;45.292;11.820;2023-03-11T12:33:04;22.58;;;10.75;;
67721;SDS011;58309;45.292;11.820;2023-03-11T12:35:35;18.40;;;11.23;;
67721;SDS011;58309;45.292;11.820;2023-03-11T12:45:57;21.38;;;11.73;;
67721;SDS011;58309;45.292;11.820;2023-03-11T12:48:31;21.70;;;12.13;;
67721;SDS011;58309;45.292;11.820;2023-03-11T12:51:05;20.13;;;11.73;;
67721;SDS011;58309;45.292;11.820;2023-03-11T13:15:49;28.33;;;11.55;;
67721;SDS011;58309;45.292;11.820;2023-03-11T13:18:16;23.23;;;12.23;;
67721;SDS011;58309;45.292;11.820;2023-03-11T13:20:48;22.08;;;12.00;;
67721;SDS011;58309;45.292;11.820;2023-03-11T13:23:24;25.48;;;11.77;;
67721;SDS011;58309;45.292;11.820;2023-03-11T13:33:47;30.40;;;13.52;;
67721;SDS011;58309;45.292;11.820;2023-03-11T13:44:56;23.00;;;13.70;;
67721;SDS011;58309;45.292;11.820;2023-03-11T13:47:22;28.48;;;13.98;;
67721;SDS011;58309;45.292;11.820;2023-03-11T13:50:01;21.75;;;12.70;;
67721;SDS011;58309;45.292;11.820;2023-03-11T13:52:32;23.90;;;13.57;;
67721;SDS011;58309;45.292;11.820;2023-03-11T13:55:17;26.63;;;13.95;;
67721;SDS011;58309;45.292;11.820;2023-03-11T13:57:54;32.80;;;13.52;;
67721;SDS011;58309;45.292;11.820;2023-03-11T14:00:21;24.25;;;13.52;;
67721;SDS011;58309;45.292;11.820;2023-03-11T14:02:56;27.80;;;13.98;;
67721;SDS011;58309;45.292;11.820;2023-03-11T14:05:30;28.90;;;15.15;;
67721;SDS011;58309;45.292;11.820;2023-03-11T14:08:10;29.90;;;15.10;;
67721;SDS011;58309;45.292;11.820;2023-03-11T14:10:51;29.45;;;15.05;;
67721;SDS011;58309;45.292;11.820;2023-03-11T14:13:18;31.92;;;16.05;;
67721;SDS011;58309;45.292;11.820;2023-03-11T14:15:45;27.67;;;15.30;;
67721;SDS011;58309;45.292;11.820;2023-03-11T14:18:32;28.15;;;16.60;;
67721;SDS011;58309;45.292;11.820;2023-03-11T14:20:59;25.73;;;15.60;;
67721;SDS011;58309;45.292;11.820;2023-03-11T14:23:27;34.53;;;16.60;;
67721;SDS011;58309;45.292;11.820;2023-03-11T14:26:17;28.75;;;16.02;;
67721;SDS011;58309;45.292;11.820;2023-03-11T14:28:45;28.52;;;14.95;;
67721;SDS011;58309;45.292;11.820;2023-03-11T14:31:21;29.73;;;14.90;;
67721;SDS011;58309;45.292;11.820;2023-03-11T14:33:56;29.05;;;15.65;;
67721;SDS011;58309;45.292;11.820;2023-03-11T14:36:22;27.88;;;15.23;;
67721;SDS011;58309;45.292;11.820;2023-03-11T14:38:48;27.48;;;15.68;;
67721;SDS011;58309;45.292;11.820;2023-03-11T14:41:13;28.02;;;16.30;;
67721;SDS011;58309;45.292;11.820;2023-03-11T14:43:40;35.53;;;19.23;;
67721;SDS011;58309;45.292;11.820;2023-03-11T14:46:14;32.72;;;20.17;;
67721;SDS011;58309;45.292;11.820;2023-03-11T14:48:45;36.47;;;23.15;;
67721;SDS011;58309;45.292;11.820;2023-03-11T14:51:32;38.15;;;19.42;;
67721;SDS011;58309;45.292;11.820;2023-03-11T14:54:05;33.33;;;20.40;;
67721;SDS011;58309;45.292;11.820;2023-03-11T14:56:32;32.08;;;19.08;;
67721;SDS011;58309;45.292;11.820;2023-03-11T15:01:37;35.25;;;20.80;;
67721;SDS011;58309;45.292;11.820;2023-03-11T15:06:38;40.25;;;22.77;;
67721;SDS011;58309;45.292;11.820;2023-03-11T15:09:07;35.77;;;19.80;;
67721;SDS011;58309;45.292;11.820;2023-03-11T15:11:43;37.03;;;22.70;;
67721;SDS011;58309;45.292;11.820;2023-03-11T15:14:26;35.80;;;24.30;;
67721;SDS011;58309;45.292;11.820;2023-03-11T15:17:08;39.75;;;23.55;;
67721;SDS011;58309;45.292;11.820;2023-03-11T15:19:41;41.10;;;24.67;;
67721;SDS011;58309;45.292;11.820;2023-03-11T15:27:42;44.17;;;24.30;;
67721;SDS011;58309;45.292;11.820;2023-03-11T15:33:03;40.78;;;24.13;;
67721;SDS011;58309;45.292;11.820;2023-03-11T15:35:47;39.72;;;23.80;;
67721;SDS011;58309;45.292;11.820;2023-03-11T15:38:21;47.47;;;25.13;;
67721;SDS011;58309;45.292;11.820;2023-03-11T15:40:59;46.95;;;25.58;;
67721;SDS011;58309;45.292;11.820;2023-03-11T15:43:31;38.35;;;23.30;;
67721;SDS011;58309;45.292;11.820;2023-03-11T15:45:59;44.13;;;23.92;;
67721;SDS011;58309;45.292;11.820;2023-03-11T15:48:26;42.58;;;23.35;;
67721;SDS011;58309;45.292;11.820;2023-03-11T15:50:55;39.85;;;22.92;;
67721;SDS011;58309;45.292;11.820;2023-03-11T15:53:25;43.30;;;24.52;;
67721;SDS011;58309;45.292;11.820;2023-03-11T15:55:52;43.55;;;25.48;;
67721;SDS011;58309;45.292;11.820;2023-03-11T15:58:21;41.97;;;25.50;;
67721;SDS011;58309;45.292;11.820;2023-03-11T16:00:47;40.33;;;24.10;;
67721;SDS011;58309;45.292;11.820;2023-03-11T16:03:15;42.95;;;24.95;;
67721;SDS011;58309;45.292;11.820;2023-03-11T16:05:41;44.83;;;25.05;;
67721;SDS011;58309;45.292;11.820;2023-03-11T16:08:07;45.25;;;26.10;;
67721;SDS011;58309;45.292;11.820;2023-03-11T16:10:32;44.75;;;25.30;;
67721;SDS011;58309;45.292;11.820;2023-03-11T16:12:58;48.95;;;25.38;;
67721;SDS011;58309;45.292;11.820;2023-03-11T16:17:53;44.90;;;24.65;;
67721;SDS011;58309;45.292;11.820;2023-03-11T16:20:20;44.42;;;26.23;;
67721;SDS011;58309;45.292;11.820;2023-03-11T16:22:48;46.13;;;25.73;;
67721;SDS011;58309;45.292;11.820;2023-03-11T16:25:18;44.57;;;24.70;;
67721;SDS011;58309;45.292;11.820;2023-03-11T16:27:44;48.03;;;26.67;;
67721;SDS011;58309;45.292;11.820;2023-03-11T16:30:10;44.53;;;24.25;;